Athens, New York
Current Conditions -  °F | °C
As of 8:54 PM on Saturday 22 Nov 2014 (Local Time) from KPSF Reporting Station
Overcast Overcast  
Wind Chill: 29°   Ceiling: 3800
Heat Index: 37°   Visibility: 10mi
Dew Point: 19°   Wind: 12mph
Humidity: 48%   Direction: 250°WSW
Pressure: 30.04"   Gusts: NA
Location:  42.26°N, 73.81°W
Report Text: KPSF 230154Z AUTO 25010KT 10SM SCT028 BKN038 OVC047 03/M07 A3004 RMK AO2 RAE06UPB06E11 SLP187 P0000 T00281072 $
Loading
Personal Weather Stations






























Interactive Weather Map New forecast layout! Learn more

10-Day Weather Forecast

Advertisements
Track Severe Weather on mobile